Time;durP1;ratioP1;P1;durP2;ratioP2;P2;SDS_P1;SDS_P2;PMS_P1;PMS_P2;Temp;Humidity;BMP_temperature;BMP_pressure;BME280_temperature;BME280_humidity;BME280_pressure;Samples;Min_cycle;Max_cycle;Signal;HPM_P1;HPM_P2
2022/01/30 00:01:01;;;;;;;3.07;2.03;;;6.40;99.90;;;;;;5095934;28;20107;-64
2022/01/30 00:03:27;;;;;;;3.17;2.10;;;6.40;99.90;;;;;;5095524;28;20048;-64
2022/01/30 00:05:52;;;;;;;2.95;2.15;;;6.40;99.90;;;;;;5077197;28;20451;-64
2022/01/30 00:08:18;;;;;;;4.00;2.03;;;6.40;99.90;;;;;;5095234;28;20036;-65
2022/01/30 00:10:45;;;;;;;3.23;1.80;;;6.40;99.90;;;;;;5095264;28;20036;-63
2022/01/30 00:13:14;;;;;;;2.92;2.10;;;6.40;99.90;;;;;;5076910;28;20024;-65
2022/01/30 00:15:49;;;;;;;3.30;1.95;;;6.40;99.90;;;;;;5095198;28;20028;-65
2022/01/30 00:18:33;;;;;;;3.42;1.98;;;6.40;99.90;;;;;;5094920;28;20114;-65
2022/01/30 00:21:06;;;;;;;3.78;2.20;;;6.40;99.90;;;;;;5076957;28;20082;-63
2022/01/30 00:23:35;;;;;;;2.88;1.80;;;6.40;99.90;;;;;;5095276;28;20395;-64
2022/01/30 00:26:03;;;;;;;2.80;1.90;;;6.40;99.90;;;;;;5078015;28;20024;-65
2022/01/30 00:28:32;;;;;;;2.53;1.80;;;6.40;99.90;;;;;;5076955;28;20054;-64
2022/01/30 00:30:58;;;;;;;3.00;2.00;;;6.30;99.90;;;;;;5076888;28;20108;-64
2022/01/30 00:33:23;;;;;;;2.88;1.80;;;6.30;99.90;;;;;;5095256;28;20066;-63
2022/01/30 00:35:50;;;;;;;2.30;1.70;;;6.30;99.90;;;;;;5095111;28;20028;-64
2022/01/30 00:38:16;;;;;;;2.13;1.70;;;6.20;99.90;;;;;;5094743;28;20400;-64
2022/01/30 00:40:42;;;;;;;;;;;6.20;99.90;;;;;;5095195;28;20026;-65
2022/01/30 00:43:09;;;;;;;2.50;1.63;;;6.30;99.90;;;;;;5094617;28;19904;-65
2022/01/30 00:45:35;;;;;;;3.25;1.98;;;6.30;99.90;;;;;;5094976;28;20503;-64
2022/01/30 00:48:01;;;;;;;3.38;1.80;;;6.30;99.90;;;;;;5094458;28;20036;-65
2022/01/30 00:50:27;;;;;;;2.58;1.63;;;6.30;99.90;;;;;;5094658;28;20031;-64
2022/01/30 00:52:55;;;;;;;2.45;1.58;;;6.30;99.90;;;;;;5076167;28;20036;-64
2022/01/30 00:55:25;;;;;;;2.40;1.70;;;6.30;99.90;;;;;;5094508;28;20050;-66
2022/01/30 00:57:51;;;;;;;2.13;1.60;;;6.30;99.90;;;;;;5094217;28;20034;-64
2022/01/30 01:00:17;;;;;;;2.38;1.80;;;6.40;99.90;;;;;;5094550;28;20077;-64
2022/01/30 01:02:44;;;;;;;2.78;1.73;;;6.40;99.90;;;;;;5094335;28;20051;-65
2022/01/30 01:05:10;;;;;;;2.55;1.58;;;6.40;99.90;;;;;;5094288;28;20028;-65
2022/01/30 01:07:41;;;;;;;2.75;1.75;;;6.50;99.90;;;;;;5093076;28;20044;-64
2022/01/30 01:10:12;;;;;;;3.60;1.60;;;6.50;99.90;;;;;;5076134;28;20028;-64
2022/01/30 01:23:26;;;;;;;6.45;3.20;;;6.50;99.90;;;;;;5093976;28;20169;-64
2022/01/30 01:25:53;;;;;;;1.85;1.45;;;6.50;99.90;;;;;;5093864;28;20126;-64
2022/01/30 01:28:19;;;;;;;2.70;1.70;;;6.50;99.90;;;;;;5093818;28;20113;-63
2022/01/30 01:30:45;;;;;;;4.23;1.80;;;6.50;99.90;;;;;;5075653;28;20177;-64
2022/01/30 01:33:12;;;;;;;3.35;1.48;;;6.40;99.90;;;;;;5093621;28;20024;-65
2022/01/30 01:35:37;;;;;;;;;;;6.40;99.90;;;;;;5094044;28;20028;-64
2022/01/30 01:38:04;;;;;;;2.40;1.70;;;6.40;99.90;;;;;;5093587;28;19904;-65
2022/01/30 01:40:30;;;;;;;;;;;6.40;99.90;;;;;;5094190;28;20085;-65
2022/01/30 01:43:00;;;;;;;2.70;1.67;;;6.40;99.90;;;;;;5093548;28;20375;-65
2022/01/30 01:45:32;;;;;;;2.85;1.92;;;6.40;99.90;;;;;;5093899;28;20477;-65
2022/01/30 01:48:02;;;;;;;2.75;1.85;;;6.30;99.90;;;;;;5075212;28;20036;-64
2022/01/30 01:50:38;;;;;;;2.63;1.60;;;6.30;99.90;;;;;;5093383;28;20430;-64
2022/01/30 01:53:10;;;;;;;4.38;1.77;;;6.30;99.90;;;;;;5075567;28;20062;-65
2022/01/30 01:55:37;;;;;;;2.92;1.60;;;6.30;99.90;;;;;;5093782;28;20464;-64
2022/01/30 01:58:04;;;;;;;2.65;1.58;;;6.30;99.90;;;;;;5093398;28;20086;-64
2022/01/30 02:00:30;;;;;;;3.40;1.85;;;6.30;99.90;;;;;;5093626;28;20452;-63
2022/01/30 02:02:56;;;;;;;2.15;1.50;;;6.30;99.90;;;;;;5093496;28;20035;-63
2022/01/30 02:05:33;;;;;;;2.08;1.52;;;6.30;99.90;;;;;;5075365;28;20594;-65
2022/01/30 02:13:12;;;;;;;2.42;1.73;;;6.30;99.90;;;;;;5093475;28;20107;-64
2022/01/30 02:24:04;;;;;;;2.10;1.38;;;6.30;99.90;;;;;;5100790;28;20081;-64
2022/01/30 02:26:40;;;;;;;2.25;1.50;;;6.30;99.90;;;;;;5100625;28;20119;-65
2022/01/30 02:29:05;;;;;;;2.08;1.35;;;6.20;99.90;;;;;;5100620;28;20418;-64
2022/01/30 02:31:35;;;;;;;2.23;1.37;;;6.20;99.90;;;;;;5100180;28;20107;-64
2022/01/30 02:34:01;;;;;;;2.78;1.30;;;6.30;99.90;;;;;;5100295;28;20028;-64
2022/01/30 02:36:26;;;;;;;2.23;1.53;;;6.30;99.90;;;;;;5100565;28;20349;-64
2022/01/30 02:38:56;;;;;;;3.17;1.50;;;6.30;99.90;;;;;;5101119;28;20031;-64
2022/01/30 02:41:22;;;;;;;2.33;1.40;;;6.20;99.90;;;;;;5100219;28;20057;-64
2022/01/30 02:44:03;;;;;;;2.00;1.23;;;6.20;99.90;;;;;;5099888;28;20032;-64
2022/01/30 02:46:33;;;;;;;2.60;1.75;;;6.20;99.90;;;;;;5082237;28;20035;-64
2022/01/30 02:49:11;;;;;;;2.38;1.40;;;6.20;99.90;;;;;;5099728;28;20050;-64
2022/01/30 02:51:46;;;;;;;2.60;1.58;;;6.20;99.90;;;;;;5081451;28;20032;-65
2022/01/30 02:54:13;;;;;;;2.28;1.60;;;6.20;99.90;;;;;;5081249;28;20035;-64
2022/01/30 02:56:40;;;;;;;2.50;1.35;;;6.20;99.90;;;;;;5081642;28;20031;-64
2022/01/30 02:59:06;;;;;;;2.03;1.50;;;6.10;99.90;;;;;;5099496;28;20026;-64
2022/01/30 03:01:31;;;;;;;3.25;1.63;;;6.10;99.90;;;;;;5099796;28;20383;-64
2022/01/30 03:03:57;;;;;;;3.27;1.80;;;6.10;99.90;;;;;;5081219;28;20418;-64
2022/01/30 03:06:23;;;;;;;4.00;1.63;;;6.10;99.90;;;;;;5099335;28;20089;-63
2022/01/30 03:08:48;;;;;;;3.03;1.83;;;6.20;99.90;;;;;;5099364;28;20097;-63
2022/01/30 03:11:14;;;;;;;2.17;1.63;;;6.20;99.90;;;;;;5099322;28;20361;-63
2022/01/30 03:13:40;;;;;;;4.90;1.90;;;6.10;99.90;;;;;;5099472;28;20054;-64
2022/01/30 03:16:05;;;;;;;2.53;1.60;;;6.10;99.90;;;;;;5099082;28;20044;-64
2022/01/30 03:18:31;;;;;;;2.33;1.53;;;6.10;99.90;;;;;;5098920;28;20347;-64
2022/01/30 03:20:57;;;;;;;2.83;2.30;;;6.10;99.90;;;;;;5099069;28;20499;-64
2022/01/30 03:23:23;;;;;;;4.63;2.70;;;6.10;99.90;;;;;;5099517;28;20070;-65
2022/01/30 03:25:54;;;;;;;2.92;1.60;;;6.10;99.90;;;;;;5100000;28;20107;-64
2022/01/30 03:28:20;;;;;;;1.75;1.10;;;6.10;99.90;;;;;;5081222;28;20031;-64
2022/01/30 03:30:48;;;;;;;1.65;1.02;;;6.10;99.90;;;;;;5095274;28;20020;-64
2022/01/30 03:33:14;;;;;;;2.65;1.70;;;6.10;99.90;;;;;;5095939;28;20081;-64
2022/01/30 03:35:40;;;;;;;3.28;1.83;;;6.00;99.90;;;;;;5095910;28;20032;-64
2022/01/30 03:38:06;;;;;;;6.13;3.63;;;6.00;99.90;;;;;;5077536;28;20119;-64
2022/01/30 03:40:32;;;;;;;2.55;1.77;;;6.00;99.90;;;;;;5095894;28;20095;-64
2022/01/30 03:42:57;;;;;;;1.85;1.30;;;6.00;99.90;;;;;;5095653;28;20028;-64
2022/01/30 03:45:23;;;;;;;2.60;1.67;;;6.00;99.90;;;;;;5095518;28;20024;-64
2022/01/30 03:47:51;;;;;;;2.80;1.70;;;6.10;99.90;;;;;;5095647;28;20028;-64
2022/01/30 03:50:16;;;;;;;2.47;1.63;;;6.00;99.90;;;;;;5095743;28;20308;-65
2022/01/30 03:52:42;;;;;;;4.67;2.97;;;6.00;99.90;;;;;;5095481;28;20465;-64
2022/01/30 03:55:08;;;;;;;4.30;3.13;;;6.10;99.90;;;;;;5095490;28;20476;-64
2022/01/30 03:57:34;;;;;;;2.88;1.55;;;6.00;99.90;;;;;;5095278;28;20028;-64
2022/01/30 03:59:59;;;;;;;2.20;1.27;;;6.00;99.90;;;;;;5077193;28;20074;-64
2022/01/30 04:02:25;;;;;;;6.00;3.40;;;6.10;99.90;;;;;;5095512;28;20016;-64
2022/01/30 04:04:50;;;;;;;2.47;1.67;;;6.10;99.90;;;;;;5095501;28;20105;-64
2022/01/30 04:07:17;;;;;;;2.93;1.77;;;6.00;99.90;;;;;;5095177;28;20031;-64
2022/01/30 04:09:43;;;;;;;2.47;1.60;;;6.00;99.90;;;;;;5095351;28;20032;-64
2022/01/30 04:12:09;;;;;;;2.83;1.83;;;6.00;99.90;;;;;;5095332;28;20552;-67
2022/01/30 04:14:35;;;;;;;1.88;1.38;;;6.00;99.90;;;;;;5095173;28;20071;-64
2022/01/30 04:17:01;;;;;;;3.08;1.60;;;6.00;99.90;;;;;;5095432;28;20032;-64
2022/01/30 04:19:27;;;;;;;2.67;1.73;;;6.00;99.90;;;;;;5115678;22;20036;-64
2022/01/30 04:21:52;;;;;;;3.53;1.80;;;5.90;99.90;;;;;;5095321;28;20284;-65
2022/01/30 04:24:18;;;;;;;2.28;1.60;;;6.00;99.90;;;;;;5095531;28;20021;-65
2022/01/30 04:26:44;;;;;;;2.07;1.50;;;5.90;99.90;;;;;;5095288;28;20515;-65
2022/01/30 04:29:10;;;;;;;2.53;1.50;;;5.90;99.90;;;;;;5076938;28;20110;-64
2022/01/30 04:31:36;;;;;;;3.30;1.35;;;5.90;99.90;;;;;;5095775;28;20097;-66
2022/01/30 04:34:02;;;;;;;2.50;1.80;;;5.90;99.90;;;;;;5095340;28;20073;-66
2022/01/30 04:36:33;;;;;;;3.17;2.22;;;5.90;99.90;;;;;;5094861;28;20099;-66
2022/01/30 04:39:09;;;;;;;5.00;1.95;;;5.90;99.90;;;;;;5095240;28;20020;-66
2022/01/30 04:42:01;;;;;;;2.35;1.83;;;5.90;99.90;;;;;;5076934;28;20020;-66
2022/01/30 05:00:26;;;;;;;3.17;1.85;;;5.70;99.90;;;;;;5095140;28;20496;-65
2022/01/30 05:03:19;;;;;;;2.95;2.03;;;5.70;99.90;;;;;;5095052;28;20028;-65
2022/01/30 05:08:07;;;;;;;3.42;1.90;;;5.60;99.90;;;;;;5094444;28;20024;-65
2022/01/30 05:10:32;;;;;;;2.33;1.65;;;5.60;99.90;;;;;;5076710;28;20016;-66
2022/01/30 05:13:00;;;;;;;3.42;2.10;;;5.60;99.90;;;;;;5094717;28;20096;-65
2022/01/30 05:15:28;;;;;;;3.47;2.20;;;5.50;99.90;;;;;;5094621;28;20024;-64
2022/01/30 05:17:55;;;;;;;2.85;2.10;;;5.50;99.90;;;;;;5076512;28;20082;-66
2022/01/30 05:20:21;;;;;;;4.72;2.35;;;5.50;99.90;;;;;;5075829;28;20424;-66
2022/01/30 05:22:47;;;;;;;3.77;2.20;;;5.40;99.90;;;;;;5094045;28;20058;-66
2022/01/30 05:25:13;;;;;;;2.67;2.00;;;5.40;99.90;;;;;;5094075;28;20448;-66
2022/01/30 05:27:39;;;;;;;3.28;2.13;;;5.40;99.90;;;;;;5075862;28;20032;-66
2022/01/30 05:30:06;;;;;;;3.28;2.15;;;5.30;99.90;;;;;;5093859;28;20046;-66
2022/01/30 05:32:32;;;;;;;5.82;2.25;;;5.30;99.90;;;;;;5093631;28;20024;-66
2022/01/30 05:34:58;;;;;;;2.70;2.10;;;5.30;99.90;;;;;;5094013;28;20472;-65
2022/01/30 05:37:24;;;;;;;5.90;2.55;;;5.30;99.90;;;;;;5093853;28;20028;-65
2022/01/30 05:39:50;;;;;;;4.60;2.58;;;5.30;99.90;;;;;;5093725;28;20099;-65
2022/01/30 05:42:19;;;;;;;4.30;2.55;;;5.30;99.90;;;;;;5094135;28;20024;-66
2022/01/30 05:45:31;;;;;;;4.25;2.35;;;5.30;99.90;;;;;;5075916;28;20028;-65
2022/01/30 05:47:44;;;;;;;6.88;2.45;;;5.30;99.90;;;;;;5085556;28;20043;-65
2022/01/30 05:50:10;;;;;;;2.80;2.45;;;5.20;99.90;;;;;;5075651;28;20506;-65
2022/01/30 05:52:36;;;;;;;4.00;2.25;;;5.20;99.90;;;;;;5093056;28;20031;-65
2022/01/30 05:55:03;;;;;;;6.53;2.83;;;5.20;99.90;;;;;;5093958;28;20381;-65
2022/01/30 05:57:28;;;;;;;;;;;5.20;99.90;;;;;;5094245;28;20543;-66
2022/01/30 05:59:54;;;;;;;3.85;2.13;;;5.20;99.90;;;;;;5075876;28;19961;-66
2022/01/30 06:02:19;;;;;;;7.90;2.90;;;5.20;99.90;;;;;;5077567;28;20024;-66
2022/01/30 06:04:45;;;;;;;4.60;2.93;;;5.20;99.90;;;;;;5095788;28;20020;-66
2022/01/30 06:07:12;;;;;;;6.05;3.25;;;5.20;99.90;;;;;;5094505;28;20032;-66
2022/01/30 06:09:37;;;;;;;;;;;5.20;99.90;;;;;;5075861;28;20399;-66
2022/01/30 06:12:04;;;;;;;3.38;2.50;;;5.10;99.90;;;;;;5093581;28;19904;-66
2022/01/30 06:14:30;;;;;;;4.05;2.63;;;5.10;99.90;;;;;;5075053;28;20143;-66
2022/01/30 06:16:56;;;;;;;6.00;3.07;;;5.20;99.90;;;;;;5093378;28;20145;-65
2022/01/30 06:19:22;;;;;;;5.03;3.10;;;5.20;99.90;;;;;;5074953;28;20028;-65
2022/01/30 06:21:49;;;;;;;6.47;3.25;;;5.20;99.90;;;;;;5093281;28;20020;-65
2022/01/30 06:24:15;;;;;;;6.50;3.13;;;5.20;99.90;;;;;;5075334;28;20032;-66
2022/01/30 06:26:41;;;;;;;6.80;3.10;;;5.20;99.90;;;;;;5075103;28;20035;-66
2022/01/30 06:29:06;;;;;;;5.75;3.15;;;5.20;99.90;;;;;;5093066;28;20444;-66
2022/01/30 06:31:32;;;;;;;8.73;3.20;;;5.20;99.90;;;;;;5074886;28;20020;-66
2022/01/30 06:33:58;;;;;;;4.75;3.28;;;5.20;99.90;;;;;;5074910;28;20025;-66
2022/01/30 06:36:24;;;;;;;5.53;3.10;;;5.20;99.90;;;;;;5093149;28;20350;-66
2022/01/30 06:38:51;;;;;;;6.73;2.80;;;5.20;99.90;;;;;;5093408;28;20030;-66
2022/01/30 06:41:17;;;;;;;7.00;3.22;;;5.30;99.90;;;;;;5093531;28;20035;-66
2022/01/30 06:43:43;;;;;;;6.40;2.93;;;5.20;99.90;;;;;;5093114;28;20035;-66
2022/01/30 06:46:11;;;;;;;6.10;2.80;;;5.20;99.90;;;;;;5092808;28;20110;-66
2022/01/30 06:48:37;;;;;;;5.03;3.38;;;5.20;99.90;;;;;;5075719;28;20537;-66
2022/01/30 06:51:04;;;;;;;4.22;3.10;;;5.20;99.90;;;;;;5092974;28;20024;-66
2022/01/30 06:53:30;;;;;;;5.43;3.22;;;5.20;99.90;;;;;;5092843;28;20085;-65
2022/01/30 06:55:56;;;;;;;4.60;2.83;;;5.20;99.90;;;;;;5093077;28;20427;-65
2022/01/30 06:58:22;;;;;;;5.53;3.07;;;5.20;99.90;;;;;;5092963;28;20025;-67
2022/01/30 07:00:47;;;;;;;5.67;3.57;;;5.20;99.90;;;;;;5092695;28;20028;-66
2022/01/30 07:03:13;;;;;;;5.60;3.53;;;5.20;99.90;;;;;;5074722;28;20495;-66
2022/01/30 07:05:39;;;;;;;4.83;3.00;;;5.20;99.90;;;;;;5095313;28;20027;-66
2022/01/30 07:08:04;;;;;;;4.60;2.90;;;5.10;99.90;;;;;;5097090;28;20024;-66
2022/01/30 07:10:30;;;;;;;4.60;2.83;;;5.10;99.90;;;;;;5097275;28;20456;-66
2022/01/30 07:12:55;;;;;;;4.30;2.90;;;5.10;99.90;;;;;;5096699;28;20383;-66
2022/01/30 07:15:22;;;;;;;4.50;2.87;;;5.00;99.90;;;;;;5096110;28;20027;-66
2022/01/30 07:17:48;;;;;;;5.13;3.03;;;5.10;99.90;;;;;;5096425;28;20027;-65
2022/01/30 07:20:14;;;;;;;5.13;3.53;;;5.10;99.90;;;;;;5095675;28;20400;-66
2022/01/30 07:22:39;;;;;;;5.78;2.78;;;5.00;99.90;;;;;;5096471;28;20085;-66
2022/01/30 07:25:07;;;;;;;7.03;3.63;;;5.00;99.90;;;;;;5096458;28;20512;-66
2022/01/30 07:27:34;;;;;;;4.55;3.20;;;5.00;99.90;;;;;;5096307;28;20024;-66
2022/01/30 07:30:00;;;;;;;9.90;3.28;;;5.00;99.90;;;;;;5096438;28;20106;-66
2022/01/30 07:32:25;;;;;;;4.33;3.07;;;4.90;99.90;;;;;;5097719;28;20093;-66
2022/01/30 07:34:51;;;;;;;6.00;2.90;;;4.90;99.90;;;;;;5098373;28;20051;-66
2022/01/30 07:37:18;;;;;;;5.85;3.47;;;4.90;99.90;;;;;;5098086;28;20020;-66
2022/01/30 07:39:44;;;;;;;6.75;2.90;;;4.90;99.90;;;;;;5097928;28;20028;-67
2022/01/30 07:42:11;;;;;;;4.82;3.05;;;4.90;99.90;;;;;;5079520;28;20031;-66
2022/01/30 07:44:36;;;;;;;;;;;4.90;99.90;;;;;;5079666;28;20032;-66
2022/01/30 07:47:02;;;;;;;7.50;3.50;;;4.80;99.90;;;;;;5097725;28;19911;-66
2022/01/30 07:49:28;;;;;;;5.65;3.20;;;4.80;99.90;;;;;;5097692;28;20043;-66
2022/01/30 07:51:54;;;;;;;5.57;3.93;;;4.80;99.90;;;;;;5079527;28;20050;-67
2022/01/30 07:54:20;;;;;;;7.03;3.17;;;4.80;99.90;;;;;;5077695;28;20031;-66
2022/01/30 07:56:45;;;;;;;4.50;2.90;;;4.80;99.90;;;;;;5096711;28;20028;-66
2022/01/30 07:59:11;;;;;;;7.37;3.20;;;4.80;99.90;;;;;;5096252;28;20170;-67
2022/01/30 08:01:37;;;;;;;5.80;3.33;;;4.90;99.90;;;;;;5096326;28;20528;-66
2022/01/30 08:04:06;;;;;;;5.30;3.47;;;4.90;99.90;;;;;;5096015;28;20115;-66
2022/01/30 08:06:35;;;;;;;6.78;3.78;;;4.90;99.90;;;;;;5096386;28;20024;-66
2022/01/30 08:09:01;;;;;;;4.95;3.25;;;5.00;99.90;;;;;;5095598;28;20028;-67
2022/01/30 08:11:27;;;;;;;9.82;3.20;;;5.10;99.90;;;;;;5077119;28;20060;-67
2022/01/30 08:13:53;;;;;;;7.77;3.03;;;5.20;99.90;;;;;;5077389;28;20113;-66
2022/01/30 08:16:20;;;;;;;4.73;3.73;;;5.30;99.90;;;;;;5095254;28;20028;-66
2022/01/30 08:18:46;;;;;;;6.45;3.45;;;5.30;99.90;;;;;;5076966;28;20055;-66
2022/01/30 08:21:11;;;;;;;5.07;3.42;;;5.30;99.90;;;;;;5095489;28;20016;-66
2022/01/30 08:23:37;;;;;;;6.87;3.40;;;5.30;99.90;;;;;;5076912;28;20457;-65
2022/01/30 08:26:03;;;;;;;6.85;3.70;;;5.40;99.90;;;;;;5077633;28;20051;-67
2022/01/30 08:28:29;;;;;;;9.27;3.80;;;5.40;99.90;;;;;;5096285;28;20032;-65
2022/01/30 08:30:55;;;;;;;9.02;3.08;;;5.60;99.90;;;;;;5095244;28;20438;-67
2022/01/30 08:33:20;;;;;;;6.23;3.53;;;5.60;99.90;;;;;;5095685;28;20472;-65
2022/01/30 08:35:47;;;;;;;9.10;3.33;;;5.50;99.90;;;;;;5076748;28;20464;-66
2022/01/30 08:38:16;;;;;;;7.03;3.38;;;5.50;99.90;;;;;;5094906;28;20262;-66
2022/01/30 08:40:42;;;;;;;6.55;3.15;;;5.60;99.90;;;;;;5076864;28;20369;-66
2022/01/30 08:43:07;;;;;;;8.35;3.08;;;5.70;99.90;;;;;;5095090;28;20023;-66
2022/01/30 08:45:33;;;;;;;6.90;2.73;;;5.80;99.90;;;;;;5076638;28;20387;-67
2022/01/30 08:47:59;;;;;;;4.88;3.15;;;5.80;99.90;;;;;;5094753;28;20035;-67
2022/01/30 08:50:25;;;;;;;6.28;2.72;;;5.90;99.90;;;;;;5076678;28;20061;-67
2022/01/30 08:52:51;;;;;;;5.75;2.88;;;5.90;99.90;;;;;;5095063;28;20061;-67
2022/01/30 08:55:18;;;;;;;6.88;3.00;;;6.00;99.90;;;;;;5076586;28;20484;-66
2022/01/30 08:57:45;;;;;;;7.15;3.42;;;6.10;99.90;;;;;;5078047;28;20027;-66
2022/01/30 09:00:15;;;;;;;10.50;3.47;;;6.10;99.90;;;;;;5095551;28;20024;-66
2022/01/30 09:02:42;;;;;;;10.70;3.83;;;6.10;99.90;;;;;;5095141;28;20028;-64
2022/01/30 09:05:10;;;;;;;10.25;3.78;;;6.10;99.90;;;;;;5095105;28;20073;-65
2022/01/30 09:07:35;;;;;;;13.63;5.10;;;6.10;99.90;;;;;;5094943;28;20078;-62
2022/01/30 09:10:03;;;;;;;14.45;3.80;;;6.10;99.90;;;;;;5094976;28;20020;-63
2022/01/30 09:12:28;;;;;;;11.93;4.10;;;6.10;99.90;;;;;;5076627;28;20032;-63
2022/01/30 09:14:54;;;;;;;14.10;4.27;;;6.10;99.90;;;;;;5094520;28;20389;-62
2022/01/30 09:17:22;;;;;;;18.20;4.20;;;6.10;99.90;;;;;;5076383;28;20027;-65
2022/01/30 09:19:48;;;;;;;13.55;4.18;;;6.20;99.90;;;;;;5094265;28;20035;-67
2022/01/30 09:22:17;;;;;;;13.60;3.58;;;6.20;99.90;;;;;;5094975;28;20028;-67
2022/01/30 09:24:44;;;;;;;15.15;3.85;;;6.20;99.90;;;;;;5094469;28;20077;-69
2022/01/30 09:27:10;;;;;;;12.82;3.60;;;6.30;99.90;;;;;;5075104;28;20138;-67
2022/01/30 09:29:37;;;;;;;11.20;3.37;;;6.40;99.90;;;;;;5076076;28;20051;-67
2022/01/30 09:32:05;;;;;;;16.23;4.25;;;6.50;99.90;;;;;;5100903;28;20258;-63
2022/01/30 09:34:31;;;;;;;10.40;2.72;;;6.60;99.90;;;;;;5097483;28;20052;-65
2022/01/30 09:36:57;;;;;;;15.82;3.38;;;6.90;99.90;;;;;;5095512;28;20028;-65
2022/01/30 09:39:23;;;;;;;18.35;3.40;;;7.20;99.90;;;;;;5078649;28;20500;-68
2022/01/30 09:41:51;;;;;;;12.52;3.17;;;7.30;99.90;;;;;;5098350;28;20046;-64
2022/01/30 09:44:18;;;;;;;21.08;4.30;;;7.50;99.90;;;;;;5095697;28;20039;-70
2022/01/30 09:46:45;;;;;;;20.05;4.03;;;7.70;99.90;;;;;;5081160;28;20035;-69
2022/01/30 09:49:11;;;;;;;16.75;3.58;;;7.80;99.90;;;;;;5096503;28;20107;-66
2022/01/30 09:51:39;;;;;;;15.73;3.72;;;8.00;99.90;;;;;;5096080;28;20024;-65
2022/01/30 09:54:05;;;;;;;11.40;2.47;;;8.50;99.90;;;;;;5076836;28;20032;-64
2022/01/30 09:56:31;;;;;;;13.15;3.50;;;9.10;99.90;;;;;;5094864;28;20028;-68
2022/01/30 09:58:56;;;;;;;17.77;3.40;;;9.20;99.90;;;;;;5077071;28;20024;-62
2022/01/30 10:01:27;;;;;;;16.53;3.00;;;9.00;99.90;;;;;;5075406;28;20270;-63
2022/01/30 10:03:52;;;;;;;11.50;3.45;;;8.70;99.90;;;;;;5075201;28;20024;-63
2022/01/30 10:06:21;;;;;;;15.30;3.40;;;8.70;99.90;;;;;;5093479;28;20028;-63
2022/01/30 10:08:53;;;;;;;13.68;2.58;;;8.60;99.90;;;;;;5093393;28;20027;-64
2022/01/30 10:11:34;;;;;;;18.48;3.30;;;8.50;99.90;;;;;;5093345;28;20549;-63
2022/01/30 10:14:07;;;;;;;17.83;3.10;;;8.40;99.90;;;;;;5075153;28;20028;-61
2022/01/30 10:16:52;;;;;;;11.80;2.55;;;8.50;99.90;;;;;;5093427;28;20396;-62
2022/01/30 10:19:20;;;;;;;15.70;2.60;;;8.90;99.90;;;;;;5093398;28;20415;-69
2022/01/30 10:21:48;;;;;;;13.75;2.70;;;9.20;99.90;;;;;;5092932;28;20021;-68
2022/01/30 10:24:22;;;;;;;11.77;2.25;;;9.60;99.90;;;;;;5093291;28;20411;-68
2022/01/30 10:26:48;;;;;;;12.23;2.47;;;10.00;99.90;;;;;;5075176;28;20480;-69
2022/01/30 10:29:25;;;;;;;15.60;2.97;;;10.50;99.90;;;;;;5093087;28;20031;-72
2022/01/30 10:32:06;;;;;;;9.95;2.90;;;10.90;99.90;;;;;;5074938;28;20388;-71
2022/01/30 10:34:33;;;;;;;11.45;2.80;;;11.30;99.90;;;;;;5093373;28;20103;-70
2022/01/30 10:37:21;;;;;;;14.35;2.20;;;11.60;98.30;;;;;;5093055;28;20075;-69
2022/01/30 10:40:02;;;;;;;9.65;1.85;;;11.80;96.70;;;;;;5095883;28;20100;-71
2022/01/30 10:42:33;;;;;;;10.55;2.53;;;11.90;94.70;;;;;;5078840;28;20055;-69
2022/01/30 10:44:59;;;;;;;7.88;1.90;;;11.90;95.10;;;;;;5097223;28;20036;-67
2022/01/30 10:47:25;;;;;;;12.10;2.63;;;12.10;93.60;;;;;;5097235;28;20112;-67
2022/01/30 10:49:51;;;;;;;10.07;2.20;;;12.30;93.50;;;;;;5096770;28;20110;-67
2022/01/30 10:52:17;;;;;;;8.88;2.40;;;12.60;93.50;;;;;;5096737;28;20028;-67
2022/01/30 10:54:49;;;;;;;10.10;2.17;;;12.50;93.60;;;;;;5097120;28;20032;-67
2022/01/30 10:57:15;;;;;;;10.35;2.47;;;12.10;93.30;;;;;;5096911;28;20035;-67
2022/01/30 10:59:52;;;;;;;16.75;3.22;;;11.40;93.80;;;;;;5096979;28;20016;-68
2022/01/30 11:02:22;;;;;;;;;;;10.50;95.10;;;;;;5097396;28;20469;-68
2022/01/30 11:04:49;;;;;;;14.13;2.00;;;9.90;94.70;;;;;;5096656;28;20379;-68
2022/01/30 11:07:17;;;;;;;9.60;2.20;;;9.50;94.60;;;;;;5096884;28;20040;-68
2022/01/30 11:10:00;;;;;;;12.05;2.10;;;9.20;94.60;;;;;;5096556;28;20028;-68
2022/01/30 11:12:45;;;;;;;9.80;2.13;;;9.30;94.80;;;;;;5096961;28;20472;-68
2022/01/30 11:17:43;;;;;;;10.63;1.55;;;9.70;95.10;;;;;;5096743;28;20020;-68
2022/01/30 11:20:12;;;;;;;7.68;2.10;;;9.60;95.60;;;;;;5096341;28;20020;-68
2022/01/30 11:22:41;;;;;;;7.18;1.70;;;9.70;96.00;;;;;;5096269;28;20017;-69
2022/01/30 11:25:09;;;;;;;9.82;2.15;;;9.60;96.20;;;;;;5096184;28;20031;-68
2022/01/30 11:27:36;;;;;;;8.25;2.17;;;9.50;96.50;;;;;;5096142;28;20035;-69
2022/01/30 11:30:03;;;;;;;11.30;2.08;;;9.30;97.20;;;;;;5077755;28;20431;-69
2022/01/30 11:32:29;;;;;;;11.65;2.53;;;9.10;97.30;;;;;;5096107;28;20040;-68
2022/01/30 11:34:56;;;;;;;9.53;1.87;;;8.90;96.90;;;;;;5077862;28;20509;-69
2022/01/30 11:37:29;;;;;;;10.32;2.10;;;8.70;96.80;;;;;;5095911;28;20051;-68
2022/01/30 11:39:55;;;;;;;11.98;2.30;;;8.60;96.90;;;;;;5095955;28;20119;-69
2022/01/30 11:42:23;;;;;;;9.90;2.00;;;8.70;97.50;;;;;;5096278;28;20384;-69
2022/01/30 11:45:27;;;;;;;10.52;2.13;;;8.60;98.20;;;;;;5095945;28;20093;-68
2022/01/30 11:48:03;;;;;;;10.48;2.05;;;8.60;97.90;;;;;;5074580;28;20042;-68
2022/01/30 11:50:34;;;;;;;8.98;1.98;;;8.70;98.40;;;;;;5094913;28;20020;-69
2022/01/30 11:52:59;;;;;;;9.55;1.85;;;8.80;97.30;;;;;;5095954;28;20028;-68
2022/01/30 11:55:50;;;;;;;12.47;2.70;;;8.80;98.00;;;;;;5095781;28;20043;-67
2022/01/30 11:58:49;;;;;;;13.98;2.58;;;8.80;97.40;;;;;;5100345;28;20024;-69
2022/01/30 12:01:27;;;;;;;13.52;2.85;;;8.80;97.50;;;;;;5080809;28;20061;-67
2022/01/30 12:04:00;;;;;;;8.75;2.83;;;8.90;97.50;;;;;;5095899;28;20027;-67
2022/01/30 12:06:25;;;;;;;7.53;2.20;;;8.80;96.90;;;;;;5095818;28;20020;-68
2022/01/30 12:08:59;;;;;;;9.73;2.03;;;8.80;97.20;;;;;;5095884;28;20031;-68
2022/01/30 12:11:37;;;;;;;11.77;2.00;;;8.80;97.60;;;;;;5095405;28;20035;-67
2022/01/30 12:14:29;;;;;;;10.25;2.05;;;8.90;97.40;;;;;;5095514;28;20129;-68
2022/01/30 12:17:05;;;;;;;6.93;1.88;;;8.90;97.40;;;;;;5077075;28;20028;-67
2022/01/30 12:19:31;;;;;;;13.30;1.90;;;8.90;97.40;;;;;;5095578;28;20039;-67
2022/01/30 12:22:19;;;;;;;12.20;1.90;;;8.80;97.70;;;;;;5095256;28;20016;-66
2022/01/30 12:24:50;;;;;;;7.35;1.58;;;8.70;97.70;;;;;;5081111;28;20044;-68
2022/01/30 12:27:16;;;;;;;9.80;1.80;;;8.50;97.70;;;;;;5095050;28;20384;-68
2022/01/30 12:29:45;;;;;;;8.50;1.80;;;8.40;98.30;;;;;;5095129;28;20050;-67
2022/01/30 12:32:22;;;;;;;11.35;2.25;;;8.30;98.60;;;;;;5094978;28;20500;-67
2022/01/30 12:34:57;;;;;;;19.38;2.72;;;8.20;99.00;;;;;;5095260;28;20473;-68
2022/01/30 12:37:29;;;;;;;8.55;2.08;;;8.10;99.40;;;;;;5094915;28;20016;-67
2022/01/30 12:39:57;;;;;;;24.90;10.15;;;8.00;99.90;;;;;;5094870;28;20115;-71
2022/01/30 12:42:26;;;;;;;21.15;6.50;;;8.00;99.90;;;;;;5076686;28;20085;-69
2022/01/30 12:44:59;;;;;;;13.35;3.15;;;7.90;99.90;;;;;;5094765;28;20020;-68
2022/01/30 12:47:25;;;;;;;17.65;2.50;;;7.90;99.90;;;;;;5094813;28;20028;-66
2022/01/30 12:49:53;;;;;;;10.20;2.40;;;7.90;99.90;;;;;;5094675;28;20024;-68
2022/01/30 12:52:33;;;;;;;9.38;2.17;;;8.00;99.90;;;;;;5095047;28;20272;-68
2022/01/30 12:55:05;;;;;;;7.32;1.90;;;8.00;99.90;;;;;;5076944;28;20435;-67
2022/01/30 12:57:32;;;;;;;13.77;2.25;;;7.90;99.90;;;;;;5077053;28;20058;-68
2022/01/30 12:59:59;;;;;;;10.25;2.13;;;7.80;99.90;;;;;;5094762;28;20072;-68
2022/01/30 13:02:33;;;;;;;11.65;2.28;;;7.90;99.90;;;;;;5094778;28;20096;-67
2022/01/30 13:05:05;;;;;;;8.98;1.95;;;7.90;99.90;;;;;;5094553;28;20020;-68
2022/01/30 13:07:31;;;;;;;12.23;2.63;;;8.00;99.90;;;;;;5094840;28;20027;-67
2022/01/30 13:10:12;;;;;;;9.73;1.60;;;8.20;99.80;;;;;;5076886;28;20028;-67
2022/01/30 13:12:38;;;;;;;13.60;2.10;;;8.30;99.90;;;;;;5076410;28;20035;-68
2022/01/30 13:15:14;;;;;;;;;;;8.40;98.70;;;;;;5094614;28;20161;-67
2022/01/30 13:17:40;;;;;;;11.63;1.98;;;8.50;97.90;;;;;;5094475;28;19911;-69
2022/01/30 13:20:09;;;;;;;8.10;1.67;;;8.50;97.70;;;;;;5094237;28;20054;-71
2022/01/30 13:22:37;;;;;;;10.35;2.35;;;8.60;97.60;;;;;;5076141;28;20254;-71
2022/01/30 13:25:09;;;;;;;11.13;2.20;;;8.80;97.30;;;;;;5076786;28;20024;-71
2022/01/30 13:27:39;;;;;;;7.90;1.98;;;8.80;97.30;;;;;;5076185;28;20063;-70
2022/01/30 13:30:06;;;;;;;10.40;2.47;;;8.80;97.00;;;;;;5076361;28;20024;-71
2022/01/30 13:32:31;;;;;;;10.35;2.03;;;9.00;97.40;;;;;;5076378;28;20027;-72
2022/01/30 13:34:58;;;;;;;12.03;2.07;;;9.10;97.00;;;;;;5075867;28;20114;-71
2022/01/30 13:37:24;;;;;;;9.50;1.88;;;9.00;96.50;;;;;;5093910;28;20417;-71
2022/01/30 13:44:52;;;;;;;8.13;2.47;;;8.50;97.50;;;;;;5094018;28;20052;-68
2022/01/30 13:47:22;;;;;;;11.50;2.05;;;8.40;97.50;;;;;;5094341;28;20522;-68
2022/01/30 13:49:51;;;;;;;13.45;2.15;;;8.30;97.80;;;;;;5093640;28;20400;-68
2022/01/30 13:52:19;;;;;;;12.05;2.10;;;8.30;97.80;;;;;;5093675;28;20034;-69